TAF SKCL
SKCL 280430Z 2806/2906 VRB04KT 9999 FEW025 BECMG 2818/2820 33010KT TEMPO 2822/2902 DZ SCT0217TCU BKN080 BECMG 2903/2905 05005KT TX31/2819Z TN19/2810Z=
METAR SKCL
SKCL 280300Z 02006KT 9999 FEW030 21/19 Q1015 NOSIG RMK A2999=
SKCL 252300Z 34007KT 9999 -DZ FEW020 BKN110 22/19 Q1014 NOSIG RMK A2997=
WC SKCL
WS SKCL
WV SKCL